AFL235 UWKD-EFHK
Flight info
| Callsign | AFL235 |
|---|---|
| Flight time | N/A |
| Altitude | 40000 |
| Route | APTAR1G APTAR L158 IRGOS T613 DOGOB M864 IBROT T784 ROKUR P164 ODATI P145 ATLUM T561 LEDUN DCT ROPAM |
| Aircraft | B772/H-SDE2E3FGHIJ5LORVWXY/LB1D1 |
Departure
| Time | 2026-05-07 18:10 |
|---|---|
| Airport | Kazan International Airport (UWKD) |
Arrival
| Time | N/A |
|---|---|
| Airport | Helsinki Vantaa Airport (EFHK) |
| Time | Latitude | Longitude | Altitude | Speed | Heading |
|---|---|---|---|---|---|
| 2026-05-07 17:50 | 55.61303 | 49.27446 | 399 ft | 0 kts | 3° |
| 2026-05-07 18:00 | 55.61296 | 49.27446 | 399 ft | 2 kts | 0° |
| 2026-05-07 18:00 | 55.61279 | 49.27447 | 396 ft | 2 kts | 352° |
| 2026-05-07 18:00 | 55.61263 | 49.27453 | 399 ft | 2 kts | 341° |
| 2026-05-07 18:00 | 55.61248 | 49.27464 | 399 ft | 2 kts | 327° |
| 2026-05-07 18:01 | 55.61235 | 49.27482 | 395 ft | 2 kts | 311° |
| 2026-05-07 18:01 | 55.61225 | 49.27505 | 395 ft | 2 kts | 299° |
| 2026-05-07 18:01 | 55.61218 | 49.27531 | 398 ft | 2 kts | 293° |
| 2026-05-07 18:01 | 55.61216 | 49.27539 | 395 ft | 1 kts | 293° |
| 2026-05-07 18:02 | 55.61217 | 49.27538 | 395 ft | 0 kts | 293° |
| 2026-05-07 18:03 | 55.61250 | 49.27450 | 396 ft | 24 kts | 305° |
| 2026-05-07 18:03 | 55.61341 | 49.27206 | 394 ft | 19 kts | 291° |
| 2026-05-07 18:03 | 55.61288 | 49.27015 | 393 ft | 19 kts | 224° |
| 2026-05-07 18:04 | 55.61296 | 49.26804 | 390 ft | 19 kts | 304° |
| 2026-05-07 18:04 | 55.61370 | 49.26615 | 392 ft | 19 kts | 304° |
| 2026-05-07 18:04 | 55.61445 | 49.26424 | 389 ft | 19 kts | 304° |
| 2026-05-07 18:04 | 55.61518 | 49.26233 | 386 ft | 19 kts | 303° |
| 2026-05-07 18:05 | 55.61591 | 49.26041 | 385 ft | 19 kts | 304° |
| 2026-05-07 18:05 | 55.61665 | 49.25850 | 382 ft | 19 kts | 304° |
| 2026-05-07 18:05 | 55.61738 | 49.25659 | 378 ft | 19 kts | 304° |
| 2026-05-07 18:05 | 55.61814 | 49.25470 | 374 ft | 19 kts | 304° |
| 2026-05-07 18:06 | 55.61847 | 49.25321 | 371 ft | 5 kts | 252° |
| 2026-05-07 18:06 | 55.61826 | 49.25270 | 375 ft | 5 kts | 224° |
| 2026-05-07 18:06 | 55.61815 | 49.25254 | 373 ft | 0 kts | 218° |
| 2026-05-07 18:08 | 55.61815 | 49.25253 | 373 ft | 3 kts | 218° |
| 2026-05-07 18:08 | 55.61758 | 49.25182 | 374 ft | 12 kts | 213° |
| 2026-05-07 18:09 | 55.61686 | 49.25167 | 373 ft | 9 kts | 147° |
| 2026-05-07 18:09 | 55.61652 | 49.25229 | 376 ft | 0 kts | 124° |
| 2026-05-07 18:10 | 55.61645 | 49.25247 | 374 ft | 13 kts | 124° |
| 2026-05-07 18:10 | 55.61559 | 49.25471 | 377 ft | 41 kts | 124° |
| 2026-05-07 18:10 | 55.61171 | 49.26473 | 393 ft | 152 kts | 124° |
| 2026-05-07 18:10 | 55.60459 | 49.28297 | 1046 ft | 198 kts | 124° |
| 2026-05-07 18:11 | 55.59620 | 49.30466 | 2261 ft | 215 kts | 124° |
| 2026-05-07 18:11 | 55.59035 | 49.31995 | 3165 ft | 236 kts | 124° |
| 2026-05-07 18:11 | 55.57626 | 49.35631 | 4101 ft | 286 kts | 125° |
| 2026-05-07 18:11 | 55.56523 | 49.38448 | 4052 ft | 276 kts | 125° |
| 2026-05-07 18:12 | 55.55454 | 49.41171 | 4049 ft | 261 kts | 126° |
| 2026-05-07 18:12 | 55.54187 | 49.43341 | 4101 ft | 262 kts | 153° |
| 2026-05-07 18:12 | 55.52412 | 49.44065 | 4476 ft | 267 kts | 183° |
| 2026-05-07 18:12 | 55.50634 | 49.43206 | 4861 ft | 268 kts | 211° |
| 2026-05-07 18:13 | 55.49273 | 49.41000 | 5236 ft | 267 kts | 237° |
| 2026-05-07 18:13 | 55.48510 | 49.38048 | 5610 ft | 265 kts | 246° |
| 2026-05-07 18:13 | 55.47481 | 49.35303 | 5985 ft | 273 kts | 225° |
| 2026-05-07 18:13 | 55.45933 | 49.33385 | 6360 ft | 274 kts | 204° |
| 2026-05-07 18:14 | 55.44168 | 49.32160 | 6725 ft | 270 kts | 206° |
| 2026-05-07 18:14 | 55.43151 | 49.30903 | 6962 ft | 273 kts | 228° |
| 2026-05-07 18:14 | 55.42312 | 49.27921 | 7359 ft | 278 kts | 262° |
| 2026-05-07 18:14 | 55.42521 | 49.24542 | 7748 ft | 277 kts | 288° |
| 2026-05-07 18:15 | 55.43224 | 49.21401 | 8154 ft | 282 kts | 293° |
| 2026-05-07 18:15 | 55.43992 | 49.18188 | 8545 ft | 292 kts | 292° |
| 2026-05-07 18:15 | 55.44780 | 49.14609 | 9143 ft | 333 kts | 290° |
| 2026-05-07 18:15 | 55.45567 | 49.10652 | 9669 ft | 345 kts | 288° |